Aviation Digital Data Service (ADDS)

Output produced by METARs form (0917 UTC 19 April 2019)
found at http://www.aviationweather.gov/metar/data/
 
Forecast for: RJOO (OSAKA INTL/ITAMI, JP)
Text: TAF RJOO 190507Z 1906/2012 35013KT 9999 FEW020 BKN045
Forecast period: 0600 to 1600 UTC 19 April 2019
Forecast type: FROM: standard forecast or significant change
Winds: from the N (350 degrees) at 15 MPH (13 knots; 6.7 m/s)
Visibility: 6 or more miles 10+ km)
Ceiling: 4500 feet AGL
Clouds: few clouds at 2000 feet AGL
broken clouds at 4500 feet AGL
Weather: no significant weather forecast for this period
Text: BECMG 1916/1918 07005KT
Forecast period: 1600 UTC 19 April 2019 to 1200 UTC 20 April 2019
Forecast type: BECOMING: Conditions expected to become as follows by 1800 UTC 19 April 2019
Winds: from the ENE (70 degrees) at 6 MPH (5 knots; 2.6 m/s)
Visibility: 6 or more miles 10+ km)
Ceiling: 4500 feet AGL
Clouds: few clouds at 2000 feet AGL
broken clouds at 4500 feet AGL
Weather: no significant weather forecast for this period